KISQ/ISQ METAR and TAF weather

Enter ICAO airport designator
Station Type Date Time Source
KISQ METAR 2021/06/24 06:55 UTC NOAA

KISQ 240655Z AUTO 21008KT 10SM OVC042 14/12 A2987 RMK AO2 T01410120


Station Type Date Time Source
KISQ Decoded METAR 2021/06/24 06:55 UTC NOAA

Manistique, Schoolcraft County Airport, MI, United States (KISQ) 45-58-29N 086-10-19W
Jun 24, 2021 - 02:55 AM EDT / 2021.06.24 0655 UTC
Wind: from the SSW (210 degrees) at 9 MPH (8 KT):0
Visibility: 10 mile(s):0
Sky conditions: overcast
Temperature: 57.4 F (14.1 C)
Dew Point: 53.6 F (12.0 C)
Relative Humidity: 87%
Pressure (altimeter): 29.87 in. Hg (1011 hPa)
ob: KISQ 240655Z AUTO 21008KT 10SM OVC042 14/12 A2987 RMK AO2 T01410120
cycle: 7

Station Type Date Time Source
KISQ TAF UTC NOAA

Error!

Example: see airport list